Time;durP1;ratioP1;P1;durP2;ratioP2;P2;SDS_P1;SDS_P2;PMS_P1;PMS_P2;Temp;Humidity;BMP_temperature;BMP_pressure;BME280_temperature;BME280_humidity;BME280_pressure;Samples;Min_cycle;Max_cycle;Signal;HPM_P1;HPM_P2
2021/05/31 00:01:50;;;;;;;2.80;2.60;;;13.70;88.80;;;;;;5072849;28;20560;-59
2021/05/31 00:04:16;;;;;;;3.73;2.40;;;13.70;87.60;;;;;;5073952;28;20232;-59
2021/05/31 00:06:48;;;;;;;3.50;2.63;;;13.80;88.40;;;;;;5073891;28;20190;-58
2021/05/31 00:09:14;;;;;;;2.93;2.63;;;13.80;86.60;;;;;;5073559;28;20186;-54
2021/05/31 00:11:39;;;;;;;3.00;2.80;;;13.60;86.00;;;;;;5073350;28;20427;-58
2021/05/31 00:14:06;;;;;;;2.63;2.43;;;13.70;86.10;;;;;;5073836;28;20515;-57
2021/05/31 00:16:31;;;;;;;3.00;2.33;;;13.80;84.90;;;;;;5073800;28;20174;-59
2021/05/31 00:18:57;;;;;;;2.83;2.60;;;14.00;85.90;;;;;;5073694;28;20753;-55
2021/05/31 00:21:23;;;;;;;5.07;3.13;;;14.10;86.10;;;;;;5073409;28;20187;-57
2021/05/31 00:23:49;;;;;;;3.37;3.07;;;14.10;84.50;;;;;;5073868;28;20211;-57
2021/05/31 00:26:16;;;;;;;3.27;2.70;;;14.00;84.60;;;;;;5073731;28;20581;-57
2021/05/31 00:28:43;;;;;;;2.63;2.27;;;14.00;85.30;;;;;;5073488;28;20275;-59
2021/05/31 00:31:09;;;;;;;3.47;3.17;;;14.10;83.80;;;;;;5073360;28;20800;-58
2021/05/31 00:33:36;;;;;;;4.87;2.43;;;14.20;84.10;;;;;;5073538;28;20404;-59
2021/05/31 00:36:01;;;;;;;2.87;2.57;;;14.20;84.20;;;;;;5073270;28;20404;-58
2021/05/31 00:38:27;;;;;;;3.00;2.60;;;14.10;85.20;;;;;;5073362;28;20459;-58
2021/05/31 00:40:53;;;;;;;3.33;2.20;;;14.00;85.60;;;;;;5073441;28;20613;-58
2021/05/31 00:43:18;;;;;;;3.87;3.57;;;13.90;85.70;;;;;;5073792;28;20182;-55
2021/05/31 00:45:44;;;;;;;2.80;2.57;;;13.90;85.50;;;;;;5073459;28;20162;-56
2021/05/31 00:48:09;;;;;;;3.10;2.80;;;13.80;86.20;;;;;;5073521;28;20193;-58
2021/05/31 00:50:35;;;;;;;3.53;2.80;;;13.80;87.50;;;;;;5073232;28;20205;-59
2021/05/31 00:53:01;;;;;;;2.63;2.43;;;13.80;86.80;;;;;;5073528;28;20150;-58
2021/05/31 00:55:27;;;;;;;6.00;2.70;;;13.70;87.10;;;;;;5073402;28;20164;-58
2021/05/31 00:57:53;;;;;;;4.80;3.00;;;13.60;87.50;;;;;;5073699;28;20169;-58
2021/05/31 01:00:19;;;;;;;3.00;2.70;;;13.60;87.70;;;;;;5073320;28;20166;-58
2021/05/31 01:02:45;;;;;;;4.13;2.57;;;13.60;88.40;;;;;;5073653;28;20409;-58
2021/05/31 01:05:11;;;;;;;4.67;3.03;;;13.50;89.10;;;;;;5073111;28;20438;-59
2021/05/31 01:07:42;;;;;;;3.27;2.73;;;13.40;89.10;;;;;;5073311;28;20270;-58
2021/05/31 01:10:11;;;;;;;2.57;2.17;;;13.50;90.00;;;;;;5073638;28;20385;-58
2021/05/31 01:13:04;;;;;;;2.73;2.53;;;13.40;90.10;;;;;;5074672;28;20415;-59
2021/05/31 01:15:40;;;;;;;2.83;2.53;;;13.40;90.20;;;;;;5076957;28;20403;-57
2021/05/31 01:18:18;;;;;;;3.57;2.80;;;13.30;90.20;;;;;;5077015;28;20392;-59
2021/05/31 01:20:53;;;;;;;4.87;2.60;;;13.20;90.40;;;;;;5076583;28;20430;-58
2021/05/31 01:23:20;;;;;;;2.87;2.67;;;13.20;90.80;;;;;;5076503;28;20467;-58
2021/05/31 01:26:04;;;;;;;3.63;2.77;;;13.10;90.80;;;;;;5076639;28;20837;-57
2021/05/31 01:28:47;;;;;;;3.23;2.43;;;13.00;91.00;;;;;;5076717;28;20504;-57
2021/05/31 01:31:16;;;;;;;3.50;2.30;;;13.00;91.30;;;;;;5058442;28;20539;-57
2021/05/31 01:33:42;;;;;;;2.87;2.63;;;13.00;91.40;;;;;;5076729;28;20404;-60
2021/05/31 01:36:08;;;;;;;2.90;2.70;;;12.90;91.60;;;;;;5076545;28;20400;-56
2021/05/31 01:38:36;;;;;;;3.87;2.67;;;12.90;91.80;;;;;;5076061;28;20255;-57
2021/05/31 01:41:03;;;;;;;2.53;2.33;;;12.80;92.00;;;;;;5076354;28;20424;-58
2021/05/31 01:43:29;;;;;;;2.70;2.50;;;12.70;92.20;;;;;;5076540;28;20450;-59
2021/05/31 01:45:56;;;;;;;3.30;3.00;;;12.60;92.40;;;;;;5069197;28;20429;-58
2021/05/31 01:48:22;;;;;;;3.80;3.40;;;12.50;92.60;;;;;;5059193;28;20445;-58
2021/05/31 01:53:19;;;;;;;4.53;2.50;;;12.30;93.80;;;;;;5069904;28;20214;-54
2021/05/31 01:55:46;;;;;;;2.77;2.57;;;12.30;93.70;;;;;;5075104;28;20918;-56
2021/05/31 01:58:13;;;;;;;4.00;3.60;;;12.30;93.70;;;;;;5075402;28;20434;-57
2021/05/31 02:00:38;;;;;;;4.20;3.33;;;12.30;93.80;;;;;;5075310;28;20839;-56
2021/05/31 02:03:04;;;;;;;3.33;3.03;;;12.30;93.70;;;;;;5095145;28;20499;-56
2021/05/31 02:05:30;;;;;;;3.23;2.97;;;12.20;94.20;;;;;;5095615;28;20533;-55
2021/05/31 02:07:56;;;;;;;3.57;3.20;;;12.20;94.50;;;;;;5095476;28;20480;-56
2021/05/31 02:10:21;;;;;;;3.30;3.03;;;12.00;95.00;;;;;;5095443;28;20173;-56
2021/05/31 02:12:59;;;;;;;2.90;2.60;;;12.10;94.90;;;;;;5095463;28;20188;-56
2021/05/31 02:15:40;;;;;;;6.37;3.03;;;12.00;95.10;;;;;;5095133;28;20150;-56
2021/05/31 02:18:29;;;;;;;3.37;2.67;;;12.00;95.30;;;;;;5095475;28;20391;-55
2021/05/31 02:21:10;;;;;;;3.20;2.60;;;11.90;95.50;;;;;;5095290;28;20383;-56
2021/05/31 02:23:37;;;;;;;3.10;2.80;;;11.70;95.70;;;;;;5094489;28;20405;-55
2021/05/31 02:26:03;;;;;;;3.20;2.83;;;11.70;96.40;;;;;;5095175;28;20406;-57
2021/05/31 02:28:29;;;;;;;3.10;2.80;;;11.70;96.50;;;;;;5095243;28;20450;-57
2021/05/31 02:30:55;;;;;;;3.00;2.70;;;11.60;96.60;;;;;;5094900;28;20907;-55
2021/05/31 02:33:25;;;;;;;3.30;3.00;;;11.50;96.80;;;;;;5095305;28;20669;-57
2021/05/31 02:35:51;;;;;;;3.70;3.20;;;11.40;97.10;;;;;;5095307;28;20460;-57
2021/05/31 02:38:17;;;;;;;4.00;3.10;;;11.30;97.60;;;;;;5095035;28;20810;-57
2021/05/31 02:40:42;;;;;;;3.47;2.63;;;11.30;97.60;;;;;;5095547;28;20654;-52
2021/05/31 02:43:11;;;;;;;3.20;2.90;;;11.30;97.70;;;;;;5094957;28;20173;-56
2021/05/31 02:45:37;;;;;;;3.93;2.73;;;11.40;97.80;;;;;;5094928;28;20166;-57
2021/05/31 02:48:04;;;;;;;3.27;2.97;;;11.30;97.70;;;;;;5094473;28;20971;-57
2021/05/31 02:50:31;;;;;;;3.27;2.80;;;11.40;98.00;;;;;;5094522;28;20400;-57
2021/05/31 02:52:58;;;;;;;3.10;2.80;;;11.40;97.90;;;;;;5094914;28;20431;-57
2021/05/31 02:55:27;;;;;;;4.00;2.80;;;11.40;98.10;;;;;;5094562;28;20437;-54
2021/05/31 02:57:53;;;;;;;7.70;2.87;;;11.40;98.30;;;;;;5094916;28;20404;-56
2021/05/31 03:00:21;;;;;;;3.63;2.70;;;11.40;98.60;;;;;;5094564;28;20400;-55
2021/05/31 03:02:47;;;;;;;3.47;2.53;;;11.30;99.00;;;;;;5094201;28;20464;-55
2021/05/31 03:05:19;;;;;;;2.50;2.30;;;11.30;99.00;;;;;;5094204;28;20400;-53
2021/05/31 03:07:45;;;;;;;3.50;2.87;;;11.30;98.80;;;;;;5094477;28;20220;-54
2021/05/31 03:10:12;;;;;;;3.50;2.60;;;11.30;98.90;;;;;;5094336;28;20495;-55
2021/05/31 03:12:38;;;;;;;4.27;3.17;;;11.30;99.20;;;;;;5094024;28;20501;-54
2021/05/31 03:15:05;;;;;;;3.47;2.93;;;11.30;99.10;;;;;;5094077;28;20479;-53
2021/05/31 03:17:31;;;;;;;4.13;3.13;;;11.30;99.40;;;;;;5093906;28;20423;-52
2021/05/31 03:19:56;;;;;;;3.27;2.97;;;11.40;99.30;;;;;;5093992;28;20395;-53
2021/05/31 03:22:22;;;;;;;3.70;2.87;;;11.40;99.20;;;;;;5093804;28;20185;-55
2021/05/31 03:24:48;;;;;;;3.70;3.33;;;11.30;99.20;;;;;;5093840;28;20170;-54
2021/05/31 03:27:14;;;;;;;3.50;3.00;;;11.30;99.60;;;;;;5093820;28;20599;-55
2021/05/31 03:29:40;;;;;;;5.53;3.30;;;11.30;99.70;;;;;;5093974;28;20256;-56
2021/05/31 03:32:06;;;;;;;3.67;2.70;;;11.30;99.70;;;;;;5093597;28;20431;-56
2021/05/31 03:34:31;;;;;;;4.03;3.13;;;11.30;99.60;;;;;;5093730;28;20177;-55
2021/05/31 03:36:57;;;;;;;3.93;3.20;;;11.30;99.70;;;;;;5093552;28;20232;-55
2021/05/31 03:39:22;;;;;;;3.30;3.00;;;11.30;99.90;;;;;;5093613;28;20171;-55
2021/05/31 03:41:48;;;;;;;4.13;3.43;;;11.30;99.90;;;;;;5093462;28;20277;-57
2021/05/31 03:44:14;;;;;;;3.10;2.80;;;11.30;99.90;;;;;;5093317;28;20199;-56
2021/05/31 03:46:40;;;;;;;3.30;3.00;;;11.20;99.90;;;;;;5093275;28;20214;-57
2021/05/31 03:49:05;;;;;;;4.77;3.27;;;11.20;99.90;;;;;;5093414;28;20193;-54
2021/05/31 03:51:31;;;;;;;4.90;3.00;;;11.10;99.90;;;;;;5093077;28;20299;-52
2021/05/31 03:53:56;;;;;;;4.80;3.20;;;11.10;99.90;;;;;;5092429;28;20196;-57
2021/05/31 03:56:22;;;;;;;2.43;2.33;;;11.00;99.90;;;;;;5091113;28;20173;-56
2021/05/31 03:58:49;;;;;;;3.90;2.93;;;10.90;99.90;;;;;;5093367;28;20170;-57
2021/05/31 04:01:16;;;;;;;2.93;2.63;;;11.10;99.90;;;;;;5093550;28;20609;-55
2021/05/31 04:03:42;;;;;;;5.60;3.30;;;11.20;99.90;;;;;;5093373;28;20516;-57
2021/05/31 04:11:36;;;;;;;4.87;3.23;;;11.20;99.90;;;;;;5093655;28;20433;-57
2021/05/31 04:14:03;;;;;;;5.03;3.30;;;11.20;99.90;;;;;;5093376;28;20391;-55
2021/05/31 04:16:29;;;;;;;3.57;3.23;;;11.20;99.90;;;;;;5093583;28;20469;-57
2021/05/31 04:18:54;;;;;;;4.20;3.90;;;11.20;99.90;;;;;;5093306;28;20907;-56
2021/05/31 04:21:20;;;;;;;3.70;3.40;;;11.20;99.90;;;;;;5092906;28;20560;-54
2021/05/31 04:23:46;;;;;;;4.23;3.40;;;11.30;99.90;;;;;;5093286;28;20172;-56
2021/05/31 04:26:12;;;;;;;6.43;3.33;;;11.40;99.90;;;;;;5093004;28;20488;-56
2021/05/31 04:28:37;;;;;;;3.90;3.47;;;11.40;99.90;;;;;;5092854;28;20193;-57
2021/05/31 04:31:03;;;;;;;4.30;3.50;;;11.50;99.90;;;;;;5092854;28;20220;-54
2021/05/31 04:33:29;;;;;;;4.57;3.60;;;11.50;99.90;;;;;;5092793;28;20701;-57
2021/05/31 04:35:54;;;;;;;4.50;4.10;;;11.50;99.90;;;;;;5093058;28;20176;-56
2021/05/31 04:38:20;;;;;;;4.00;3.40;;;11.60;99.90;;;;;;5092866;28;20170;-55
2021/05/31 04:40:45;;;;;;;3.90;3.43;;;11.60;99.90;;;;;;5074439;28;20587;-55
2021/05/31 04:43:11;;;;;;;4.27;3.77;;;11.60;99.90;;;;;;5092664;28;20177;-56
2021/05/31 04:45:36;;;;;;;3.67;3.37;;;11.70;99.90;;;;;;5070860;28;20630;-57
2021/05/31 04:48:02;;;;;;;4.37;3.97;;;11.70;99.90;;;;;;5056956;28;20280;-57
2021/05/31 04:50:28;;;;;;;4.13;3.53;;;11.70;99.90;;;;;;5056468;28;20171;-57
2021/05/31 04:52:53;;;;;;;4.33;3.80;;;11.80;99.90;;;;;;5056132;28;20214;-56
2021/05/31 04:55:19;;;;;;;3.60;3.00;;;11.70;99.90;;;;;;5056483;28;20176;-57
2021/05/31 04:57:46;;;;;;;4.60;3.73;;;11.70;99.90;;;;;;5056632;28;20175;-56
2021/05/31 05:00:13;;;;;;;4.33;3.90;;;11.80;99.90;;;;;;5056372;28;20410;-55
2021/05/31 05:02:39;;;;;;;3.10;2.80;;;11.80;99.90;;;;;;5056102;28;20627;-57
2021/05/31 05:05:05;;;;;;;3.93;3.63;;;11.90;99.90;;;;;;5056524;28;20505;-56
2021/05/31 05:07:31;;;;;;;4.07;3.67;;;12.00;99.90;;;;;;5056198;28;20257;-55
2021/05/31 05:09:56;;;;;;;3.73;3.33;;;12.00;99.90;;;;;;5055628;28;20547;-55
2021/05/31 05:12:22;;;;;;;4.63;3.67;;;12.20;99.90;;;;;;5066253;28;20194;-56
2021/05/31 05:14:47;;;;;;;4.20;3.07;;;12.30;99.90;;;;;;5056152;28;20193;-57
2021/05/31 05:17:13;;;;;;;3.87;3.57;;;12.40;99.90;;;;;;5056014;28;20198;-57
2021/05/31 05:19:39;;;;;;;3.77;3.40;;;12.40;99.90;;;;;;5055977;28;20202;-56
2021/05/31 05:22:04;;;;;;;4.40;4.00;;;12.50;99.90;;;;;;5055735;28;20202;-55
2021/05/31 05:24:31;;;;;;;4.23;3.83;;;12.50;99.90;;;;;;5056023;28;20519;-54
2021/05/31 05:26:57;;;;;;;6.40;3.90;;;12.60;99.90;;;;;;5055710;28;20180;-56
2021/05/31 05:29:22;;;;;;;5.00;3.57;;;12.80;99.90;;;;;;5054985;28;20448;-55
2021/05/31 05:31:48;;;;;;;6.63;4.27;;;12.90;99.90;;;;;;5055517;28;20595;-54
2021/05/31 05:34:14;;;;;;;3.50;3.20;;;12.90;99.90;;;;;;5055688;28;20612;-55
2021/05/31 05:36:45;;;;;;;3.73;3.40;;;13.10;99.90;;;;;;5055620;28;20184;-56
2021/05/31 05:49:36;;;;;;;3.63;3.33;;;13.80;99.90;;;;;;5055390;28;20478;-53
2021/05/31 05:52:01;;;;;;;5.50;4.23;;;14.00;99.90;;;;;;5055071;28;20934;-56
2021/05/31 05:54:27;;;;;;;3.47;3.27;;;14.00;99.10;;;;;;5055163;28;20192;-51
2021/05/31 05:56:53;;;;;;;3.70;3.37;;;14.30;99.30;;;;;;5055126;28;20169;-55
2021/05/31 05:59:18;;;;;;;4.20;3.80;;;14.50;98.20;;;;;;5053607;28;20626;-56
2021/05/31 06:01:44;;;;;;;4.43;4.00;;;14.70;98.20;;;;;;5065899;28;20190;-55
2021/05/31 06:04:10;;;;;;;4.77;3.70;;;14.80;98.10;;;;;;5074958;28;20177;-56
2021/05/31 06:06:35;;;;;;;6.07;4.07;;;14.90;97.60;;;;;;5074859;28;20230;-56
2021/05/31 06:09:01;;;;;;;3.77;3.47;;;15.20;96.50;;;;;;5075397;28;20203;-56
2021/05/31 06:11:27;;;;;;;5.33;3.70;;;15.30;96.70;;;;;;5075186;28;20666;-57
2021/05/31 06:13:53;;;;;;;4.50;3.97;;;15.40;97.30;;;;;;5074779;28;20162;-54
2021/05/31 06:16:20;;;;;;;6.50;4.40;;;15.50;97.50;;;;;;5074725;28;20393;-55
2021/05/31 06:18:45;;;;;;;4.63;4.17;;;15.50;97.70;;;;;;5074710;28;20177;-55
2021/05/31 06:21:11;;;;;;;6.10;4.40;;;15.40;96.70;;;;;;5074834;28;20431;-55
2021/05/31 06:23:37;;;;;;;8.07;4.50;;;15.50;96.50;;;;;;5074789;28;20171;-50
2021/05/31 06:26:02;;;;;;;8.00;5.07;;;15.40;96.40;;;;;;5074520;28;20549;-54
2021/05/31 06:28:28;;;;;;;8.30;5.10;;;15.40;95.90;;;;;;5074383;28;20574;-56
2021/05/31 06:30:54;;;;;;;4.80;4.10;;;15.40;96.10;;;;;;5074425;28;20173;-56
2021/05/31 06:33:20;;;;;;;6.90;4.77;;;15.50;95.80;;;;;;5074724;28;20529;-56
2021/05/31 06:35:46;;;;;;;6.20;4.33;;;15.40;96.40;;;;;;5074997;28;20184;-55
2021/05/31 06:38:12;;;;;;;4.30;3.90;;;15.50;95.60;;;;;;5074409;28;20965;-55
2021/05/31 06:40:39;;;;;;;4.27;3.87;;;15.60;95.20;;;;;;5074652;28;20496;-53
2021/05/31 06:43:05;;;;;;;4.83;4.37;;;15.70;95.30;;;;;;5074595;28;20583;-56
2021/05/31 06:45:32;;;;;;;5.03;4.47;;;15.80;95.90;;;;;;5074186;28;20403;-56
2021/05/31 06:48:02;;;;;;;4.60;4.20;;;16.10;95.50;;;;;;5074344;28;20458;-56
2021/05/31 06:50:33;;;;;;;3.87;3.50;;;16.10;94.70;;;;;;5074318;28;20390;-55
2021/05/31 06:53:00;;;;;;;6.27;4.57;;;16.10;94.40;;;;;;5074106;28;20927;-54
2021/05/31 06:55:29;;;;;;;4.40;3.80;;;16.40;94.50;;;;;;5074821;28;20874;-55
2021/05/31 06:57:55;;;;;;;4.60;3.60;;;16.20;93.60;;;;;;5074198;28;20417;-55
2021/05/31 07:00:24;;;;;;;5.63;3.80;;;16.30;94.20;;;;;;5073884;28;20417;-56
2021/05/31 07:02:50;;;;;;;7.90;4.60;;;16.40;93.60;;;;;;5073722;28;20192;-56
2021/05/31 07:05:16;;;;;;;4.20;3.37;;;16.60;93.60;;;;;;5073875;28;20441;-55
2021/05/31 07:07:42;;;;;;;3.63;3.30;;;16.70;92.30;;;;;;5073502;28;20415;-53
2021/05/31 07:10:10;;;;;;;3.90;3.20;;;16.50;92.60;;;;;;5073604;28;20453;-56
2021/05/31 07:12:36;;;;;;;3.93;2.93;;;16.50;92.40;;;;;;5073516;28;20228;-56
2021/05/31 07:15:04;;;;;;;4.10;3.70;;;16.50;92.20;;;;;;5073696;28;20426;-56
2021/05/31 07:17:33;;;;;;;3.97;3.27;;;16.60;92.40;;;;;;5073640;28;20449;-54
2021/05/31 07:20:00;;;;;;;3.77;3.40;;;16.50;92.10;;;;;;5073631;28;20537;-56
2021/05/31 07:22:26;;;;;;;3.60;2.90;;;16.70;92.10;;;;;;5073505;28;20473;-54
2021/05/31 07:24:53;;;;;;;3.73;2.50;;;16.80;91.80;;;;;;5073420;28;20455;-55
2021/05/31 07:27:19;;;;;;;2.97;2.77;;;16.80;90.70;;;;;;5073418;28;20448;-56
2021/05/31 07:29:45;;;;;;;3.17;2.40;;;16.70;90.00;;;;;;5073394;28;20892;-54
2021/05/31 07:32:11;;;;;;;3.00;2.60;;;16.40;90.30;;;;;;5073259;28;20417;-56
2021/05/31 07:34:37;;;;;;;3.77;3.03;;;16.60;89.70;;;;;;5073583;28;20406;-55
2021/05/31 07:37:03;;;;;;;2.17;1.93;;;16.60;88.50;;;;;;5073659;28;20737;-56
2021/05/31 07:39:28;;;;;;;3.63;3.10;;;16.70;87.70;;;;;;5073403;28;20530;-56
2021/05/31 07:41:55;;;;;;;2.73;2.37;;;16.90;86.40;;;;;;5074130;28;20201;-56
2021/05/31 07:44:20;;;;;;;3.50;2.57;;;16.90;87.40;;;;;;5073801;28;20226;-54
2021/05/31 07:46:46;;;;;;;2.67;2.47;;;16.80;82.40;;;;;;5073418;28;20417;-53
2021/05/31 07:49:12;;;;;;;2.47;2.27;;;16.90;82.10;;;;;;5073054;28;20198;-53
2021/05/31 07:51:44;;;;;;;3.87;2.80;;;16.90;82.50;;;;;;5097202;23;20466;-57
2021/05/31 07:54:10;;;;;;;4.10;2.53;;;16.90;81.50;;;;;;5050588;28;20870;-57
2021/05/31 07:56:36;;;;;;;3.43;2.97;;;17.00;81.30;;;;;;5053558;28;20424;-56
2021/05/31 07:59:02;;;;;;;3.00;2.47;;;17.00;83.10;;;;;;5052823;28;20408;-54
2021/05/31 08:01:28;;;;;;;3.07;2.60;;;17.00;83.20;;;;;;5049455;28;20412;-57
2021/05/31 08:03:53;;;;;;;6.10;2.80;;;17.20;81.50;;;;;;5014088;28;20402;-55
2021/05/31 08:06:19;;;;;;;3.10;2.80;;;17.40;80.90;;;;;;5012808;28;20232;-55
2021/05/31 08:08:44;;;;;;;2.87;2.63;;;17.30;81.00;;;;;;5014206;28;20192;-57
2021/05/31 08:11:11;;;;;;;2.60;2.07;;;17.30;81.60;;;;;;5013821;28;20175;-54
2021/05/31 08:13:37;;;;;;;4.40;3.00;;;17.50;82.70;;;;;;5013905;28;20188;-55
2021/05/31 08:16:04;;;;;;;3.10;2.40;;;17.40;80.00;;;;;;5013470;28;20506;-57
2021/05/31 08:18:30;;;;;;;2.60;2.23;;;17.40;81.30;;;;;;5014118;28;20425;-56
2021/05/31 08:20:55;;;;;;;2.40;2.10;;;17.40;80.80;;;;;;5013638;28;20418;-55
2021/05/31 08:23:21;;;;;;;2.40;2.20;;;17.30;77.20;;;;;;5012758;28;20214;-56
2021/05/31 08:25:47;;;;;;;3.03;2.83;;;17.20;76.70;;;;;;5013841;28;20659;-53
2021/05/31 08:28:13;;;;;;;2.80;2.50;;;17.30;77.00;;;;;;5013726;28;20223;-54
2021/05/31 08:30:41;;;;;;;8.47;2.70;;;17.40;76.90;;;;;;5013683;28;20164;-56
2021/05/31 08:33:07;;;;;;;2.97;2.37;;;17.60;78.10;;;;;;5013809;28;20200;-55
2021/05/31 08:35:36;;;;;;;3.37;2.10;;;17.90;78.30;;;;;;5013671;28;20414;-58
2021/05/31 08:38:02;;;;;;;2.40;2.20;;;18.00;78.90;;;;;;5013603;28;20473;-53
2021/05/31 08:40:28;;;;;;;2.40;2.20;;;17.70;78.30;;;;;;5013914;28;20439;-55
2021/05/31 08:42:54;;;;;;;4.50;2.50;;;17.70;77.50;;;;;;5013879;28;20791;-56
2021/05/31 08:45:21;;;;;;;4.67;2.50;;;17.70;77.10;;;;;;5013900;28;20210;-57
2021/05/31 08:47:49;;;;;;;2.80;2.60;;;17.80;75.60;;;;;;5013322;28;20186;-57
2021/05/31 08:50:19;;;;;;;3.00;2.13;;;17.60;75.60;;;;;;5013734;28;20884;-58
2021/05/31 08:52:45;;;;;;;3.27;2.40;;;17.40;75.30;;;;;;5013549;28;20447;-56
2021/05/31 08:55:13;;;;;;;2.13;2.00;;;17.60;73.90;;;;;;5013376;28;20512;-54
2021/05/31 08:57:39;;;;;;;2.60;2.40;;;17.60;74.20;;;;;;5013751;28;20435;-56
2021/05/31 09:00:07;;;;;;;3.20;2.67;;;17.50;72.50;;;;;;5012326;28;20454;-54
2021/05/31 09:02:35;;;;;;;3.03;2.60;;;17.60;72.80;;;;;;5013355;28;20723;-56
2021/05/31 09:05:01;;;;;;;2.80;2.60;;;17.70;74.40;;;;;;5013295;28;20510;-55
2021/05/31 09:07:26;;;;;;;2.43;2.23;;;17.80;74.00;;;;;;5012184;28;20449;-53
2021/05/31 09:09:55;;;;;;;3.00;2.80;;;17.90;74.90;;;;;;5013586;28;20592;-55
2021/05/31 09:12:27;;;;;;;2.50;2.30;;;17.90;75.20;;;;;;5011817;28;20683;-56
2021/05/31 09:15:01;;;;;;;2.70;2.10;;;17.90;75.20;;;;;;5013669;28;20395;-56
2021/05/31 09:17:29;;;;;;;2.73;2.53;;;18.10;74.60;;;;;;5013197;28;20391;-56
2021/05/31 09:19:55;;;;;;;2.07;1.93;;;18.00;70.80;;;;;;5013602;28;20919;-56
2021/05/31 09:22:22;;;;;;;3.33;2.30;;;18.00;72.10;;;;;;5013377;28;20427;-55
2021/05/31 09:24:54;;;;;;;2.60;2.40;;;18.20;73.40;;;;;;5013598;28;20418;-55
2021/05/31 09:27:20;;;;;;;2.80;2.60;;;18.30;71.30;;;;;;5013946;28;20977;-57
2021/05/31 09:29:55;;;;;;;2.90;2.60;;;18.30;71.90;;;;;;5013234;28;20450;-56
2021/05/31 09:32:21;;;;;;;3.13;2.27;;;18.50;71.20;;;;;;5013048;28;20218;-57
2021/05/31 09:34:57;;;;;;;2.50;2.30;;;18.60;71.70;;;;;;5016603;28;20410;-54
2021/05/31 09:37:23;;;;;;;2.60;2.40;;;18.60;71.30;;;;;;5017189;28;20148;-55
2021/05/31 09:39:57;;;;;;;2.80;2.50;;;18.70;70.90;;;;;;5016485;28;20472;-55
2021/05/31 09:42:23;;;;;;;2.90;2.70;;;18.70;70.70;;;;;;5016599;28;20183;-55
2021/05/31 09:45:02;;;;;;;2.90;2.40;;;18.80;72.20;;;;;;5016630;28;20413;-56
2021/05/31 09:47:34;;;;;;;6.30;3.10;;;18.80;71.20;;;;;;5016472;28;20160;-56
2021/05/31 09:50:00;;;;;;;2.80;2.60;;;18.90;72.20;;;;;;5016579;28;20429;-55
2021/05/31 09:52:26;;;;;;;4.60;2.63;;;18.90;71.00;;;;;;5016367;28;20520;-56
2021/05/31 09:54:53;;;;;;;3.07;2.77;;;18.60;70.50;;;;;;5016632;28;20403;-55
2021/05/31 09:57:23;;;;;;;2.73;2.53;;;18.60;70.60;;;;;;5016057;28;20182;-56
2021/05/31 10:00:01;;;;;;;3.30;2.60;;;18.30;70.20;;;;;;5016078;28;20407;-53
2021/05/31 10:02:41;;;;;;;2.57;2.37;;;18.50;71.90;;;;;;5016332;28;20794;-57
2021/05/31 10:10:08;;;;;;;3.00;2.30;;;19.00;71.20;;;;;;5035838;28;20406;-56
2021/05/31 10:12:36;;;;;;;4.03;3.73;;;19.30;69.60;;;;;;5035246;28;20425;-56
2021/05/31 10:15:04;;;;;;;4.67;3.27;;;19.20;70.00;;;;;;5034579;28;20422;-57
2021/05/31 10:17:29;;;;;;;3.40;3.10;;;19.20;70.80;;;;;;5035440;28;20406;-55
2021/05/31 10:19:55;;;;;;;2.93;2.57;;;19.50;68.50;;;;;;5035675;28;20405;-57
2021/05/31 10:22:21;;;;;;;3.17;2.97;;;19.10;69.00;;;;;;5035979;28;20422;-60
2021/05/31 10:24:49;;;;;;;3.17;2.90;;;19.10;68.30;;;;;;5035837;28;20518;-58
2021/05/31 10:27:16;;;;;;;3.10;2.77;;;19.40;69.80;;;;;;5035518;28;20163;-57
2021/05/31 10:29:45;;;;;;;2.80;2.10;;;19.40;68.00;;;;;;5035432;28;20442;-59
2021/05/31 10:32:12;;;;;;;2.97;2.57;;;19.50;67.70;;;;;;5035372;28;20418;-56
2021/05/31 10:34:52;;;;;;;2.53;2.10;;;19.70;66.70;;;;;;5035427;28;20925;-58
2021/05/31 10:37:22;;;;;;;2.50;2.30;;;19.80;68.80;;;;;;5035296;28;20406;-56
2021/05/31 10:40:12;;;;;;;2.83;2.60;;;19.80;67.50;;;;;;5035454;28;20413;-57
2021/05/31 10:42:41;;;;;;;3.63;2.70;;;19.90;66.60;;;;;;5025207;28;20437;-56
2021/05/31 10:45:26;;;;;;;2.73;2.50;;;19.90;69.40;;;;;;5031400;28;20930;-57
2021/05/31 10:48:21;;;;;;;3.50;2.33;;;20.30;67.30;;;;;;5026423;28;20472;-59
2021/05/31 10:50:47;;;;;;;2.80;2.30;;;20.40;66.40;;;;;;5035250;28;20776;-58
2021/05/31 10:56:05;;;;;;;2.60;2.40;;;20.50;67.00;;;;;;5035092;28;20394;-56
2021/05/31 10:58:45;;;;;;;2.90;2.70;;;20.60;65.40;;;;;;5034890;28;20417;-54
2021/05/31 11:01:14;;;;;;;3.70;2.60;;;19.80;66.00;;;;;;5034782;28;20889;-55
2021/05/31 11:03:45;;;;;;;2.30;2.10;;;20.00;67.00;;;;;;5034668;28;20524;-55
2021/05/31 11:06:16;;;;;;;3.13;2.90;;;20.50;66.80;;;;;;5034694;28;20844;-50
2021/05/31 11:09:08;;;;;;;3.57;3.10;;;20.60;66.20;;;;;;5034943;28;20521;-51
2021/05/31 11:11:39;;;;;;;3.27;2.70;;;20.70;67.40;;;;;;5014023;28;20485;-52
2021/05/31 11:14:06;;;;;;;2.63;2.43;;;21.00;66.20;;;;;;5034670;28;20405;-52
2021/05/31 11:16:49;;;;;;;4.57;2.30;;;20.90;65.30;;;;;;5034339;28;20402;-54
2021/05/31 11:19:15;;;;;;;3.13;2.93;;;20.90;67.40;;;;;;5034677;28;20390;-55
2021/05/31 11:21:43;;;;;;;2.87;2.57;;;21.20;66.30;;;;;;5034628;28;20489;-55
2021/05/31 11:24:13;;;;;;;7.30;2.40;;;21.00;65.80;;;;;;5034537;28;20164;-52
2021/05/31 11:26:42;;;;;;;2.50;2.30;;;21.40;63.80;;;;;;5034885;28;20474;-52
2021/05/31 11:29:10;;;;;;;2.30;2.10;;;22.80;63.80;;;;;;5033939;28;20856;-56
2021/05/31 11:31:37;;;;;;;2.43;2.10;;;24.00;57.40;;;;;;5034390;28;20498;-56
2021/05/31 11:34:04;;;;;;;2.50;2.30;;;25.80;56.10;;;;;;5034226;28;20401;-55
2021/05/31 11:36:38;;;;;;;2.90;2.30;;;26.60;53.40;;;;;;5034132;28;20761;-56
2021/05/31 11:39:16;;;;;;;3.03;2.37;;;26.40;52.10;;;;;;5034417;28;20463;-58
2021/05/31 11:41:45;;;;;;;1.87;1.77;;;27.10;51.10;;;;;;5034265;28;20387;-58
2021/05/31 11:44:14;;;;;;;2.53;2.30;;;26.90;51.20;;;;;;5034112;28;20406;-58
2021/05/31 11:47:00;;;;;;;2.50;2.17;;;27.30;47.80;;;;;;5030703;28;20430;-58
2021/05/31 11:49:28;;;;;;;2.30;2.10;;;26.70;47.70;;;;;;5014479;28;20435;-57
2021/05/31 11:52:00;;;;;;;3.70;2.40;;;26.00;48.70;;;;;;5014112;28;20478;-58
2021/05/31 11:54:27;;;;;;;2.93;2.60;;;25.90;50.00;;;;;;5014006;28;20387;-60
2021/05/31 11:56:57;;;;;;;2.07;1.97;;;26.50;48.30;;;;;;5014366;28;20457;-59
2021/05/31 11:59:23;;;;;;;2.43;1.90;;;27.00;47.00;;;;;;5014380;28;20965;-59
2021/05/31 12:01:58;;;;;;;2.30;2.10;;;27.70;46.90;;;;;;5014471;28;20510;-53
2021/05/31 12:04:25;;;;;;;2.20;2.00;;;28.00;45.90;;;;;;5014231;28;20394;-56
2021/05/31 12:07:04;;;;;;;2.33;2.10;;;27.20;45.70;;;;;;5022225;28;20503;-57
2021/05/31 12:09:30;;;;;;;2.47;2.27;;;27.60;45.10;;;;;;5034222;28;20746;-54
2021/05/31 12:11:57;;;;;;;5.97;2.53;;;28.20;45.60;;;;;;5032418;28;20426;-57
2021/05/31 12:14:25;;;;;;;2.70;2.07;;;29.20;44.30;;;;;;5034102;28;20403;-57
2021/05/31 12:17:00;;;;;;;3.27;2.53;;;29.50;44.00;;;;;;5034100;28;20785;-55
2021/05/31 12:19:27;;;;;;;3.53;2.30;;;29.90;43.10;;;;;;5033763;28;20408;-57
2021/05/31 12:22:03;;;;;;;2.43;2.13;;;29.50;41.30;;;;;;5033965;28;20433;-57
2021/05/31 12:24:50;;;;;;;2.90;2.60;;;29.70;40.20;;;;;;5033452;28;20472;-57
2021/05/31 12:27:25;;;;;;;3.63;2.20;;;27.10;43.80;;;;;;5033897;28;20391;-55
2021/05/31 12:29:52;;;;;;;2.07;1.93;;;26.30;43.70;;;;;;5033508;28;20491;-54
2021/05/31 12:32:20;;;;;;;2.57;2.00;;;25.90;45.40;;;;;;5033347;28;20802;-58
2021/05/31 12:34:47;;;;;;;2.00;1.80;;;27.50;42.50;;;;;;5033165;28;21037;-58
2021/05/31 12:37:15;;;;;;;2.73;2.20;;;28.20;40.60;;;;;;5033383;28;20891;-56
2021/05/31 12:39:45;;;;;;;4.53;2.10;;;28.10;40.30;;;;;;5033377;28;20402;-56
2021/05/31 12:42:12;;;;;;;2.10;2.00;;;29.00;40.60;;;;;;5033491;28;20445;-55
2021/05/31 12:44:38;;;;;;;2.60;2.00;;;29.40;38.30;;;;;;5033386;28;20437;-59
2021/05/31 12:47:10;;;;;;;3.33;2.00;;;29.80;38.20;;;;;;5033224;28;20402;-58
2021/05/31 12:49:48;;;;;;;2.40;1.87;;;30.50;36.90;;;;;;5032997;28;21052;-56
2021/05/31 12:52:22;;;;;;;3.57;2.37;;;29.90;37.00;;;;;;5032974;28;20445;-55
2021/05/31 12:54:58;;;;;;;2.20;2.00;;;30.20;37.40;;;;;;5033277;28;20467;-57
2021/05/31 12:57:23;;;;;;;1.97;1.87;;;30.70;36.90;;;;;;5033212;28;20386;-55
2021/05/31 12:59:49;;;;;;;2.60;2.40;;;30.60;36.10;;;;;;5033309;28;20769;-56
2021/05/31 13:02:17;;;;;;;1.80;1.70;;;27.90;38.80;;;;;;5033865;28;20194;-56
2021/05/31 13:04:43;;;;;;;2.10;1.90;;;29.70;40.30;;;;;;5033455;28;20180;-57
2021/05/31 13:07:17;;;;;;;2.20;2.00;;;30.90;35.80;;;;;;5032940;28;20406;-59
2021/05/31 13:09:43;;;;;;;2.50;2.03;;;31.50;33.80;;;;;;5035969;28;20547;-58
2021/05/31 13:12:09;;;;;;;1.70;1.60;;;33.30;32.00;;;;;;5036734;28;20471;-56
2021/05/31 13:14:41;;;;;;;2.20;2.03;;;33.20;32.80;;;;;;5037052;28;20398;-57
2021/05/31 13:17:08;;;;;;;2.37;2.17;;;32.30;34.60;;;;;;5037157;28;20394;-57
2021/05/31 13:19:36;;;;;;;2.17;1.93;;;31.00;35.40;;;;;;5036834;28;20772;-57